createdAt,value
2019-05-20T00:00:43.115Z,40.37
2019-05-20T00:03:45.119Z,46.87
2019-05-20T00:06:47.068Z,46.93
2019-05-20T00:09:49.014Z,41.03
2019-05-20T00:12:50.925Z,34.97
2019-05-20T00:15:52.941Z,36.87
2019-05-20T00:18:54.823Z,45.03
2019-05-20T00:21:56.741Z,42.73
2019-05-20T00:24:58.854Z,40.07
2019-05-20T00:28:00.820Z,51.97
2019-05-20T00:31:02.771Z,56.47
2019-05-20T00:34:04.738Z,50.83
2019-05-20T00:37:06.713Z,50.33
2019-05-20T00:40:10.139Z,46.43
2019-05-20T00:43:12.072Z,54.83
2019-05-20T00:46:14.005Z,65.60
2019-05-20T00:49:16.030Z,46.00
2019-05-20T00:52:17.934Z,62.20
2019-05-20T00:55:23.261Z,50.97
2019-05-20T00:58:25.354Z,235.73
2019-05-20T01:01:27.343Z,60.30
2019-05-20T01:04:29.262Z,64.27
2019-05-20T01:07:31.228Z,75.10
2019-05-20T01:10:33.156Z,78.90
2019-05-20T01:13:35.163Z,65.43
2019-05-20T01:16:37.083Z,62.43
2019-05-20T01:19:39.001Z,59.73
2019-05-20T01:22:40.905Z,57.37
2019-05-20T01:25:42.945Z,67.17
2019-05-20T01:28:44.887Z,59.77
2019-05-20T01:31:46.778Z,65.80
2019-05-20T01:34:49.155Z,57.00
2019-05-20T01:37:51.116Z,66.67
2019-05-20T01:40:53.073Z,61.83
2019-05-20T01:43:55.069Z,62.33
2019-05-20T01:46:56.985Z,48.70
2019-05-20T01:49:58.917Z,56.37
2019-05-20T01:53:00.872Z,55.43
2019-05-20T01:56:03.232Z,49.73
2019-05-20T01:59:05.764Z,49.33
2019-05-20T02:02:07.735Z,55.07
2019-05-20T02:05:09.943Z,51.83
2019-05-20T02:08:11.858Z,55.90
2019-05-20T02:11:13.779Z,50.53
2019-05-20T02:14:17.536Z,40.70
2019-05-20T02:17:19.538Z,47.40
2019-05-20T02:20:21.523Z,58.30
2019-05-20T02:23:23.741Z,53.07
2019-05-20T02:26:25.828Z,50.70
2019-05-20T02:29:27.914Z,49.70
2019-05-20T02:32:31.154Z,51.20
2019-05-20T02:35:33.083Z,62.00
2019-05-20T02:38:34.954Z,48.77
2019-05-20T02:41:36.852Z,52.23
2019-05-20T02:44:38.875Z,54.33
2019-05-20T02:47:40.822Z,60.50
2019-05-20T02:50:42.836Z,60.17
2019-05-20T02:53:44.698Z,51.93
2019-05-20T02:56:46.659Z,56.30
2019-05-20T02:59:48.629Z,52.50
2019-05-20T03:02:50.630Z,47.57
2019-05-20T03:05:52.592Z,48.83
2019-05-20T03:08:54.510Z,48.53
2019-05-20T03:11:56.387Z,48.03
2019-05-20T03:14:58.342Z,43.73
2019-05-20T03:18:00.221Z,45.37
2019-05-20T03:21:02.231Z,48.00
2019-05-20T03:24:04.155Z,49.20
2019-05-20T03:27:06.220Z,49.53
2019-05-20T03:30:09.322Z,50.40
2019-05-20T03:33:11.313Z,47.90
2019-05-20T03:36:13.261Z,44.00
2019-05-20T03:39:15.228Z,45.17
2019-05-20T03:42:17.152Z,32.03
2019-05-20T03:45:19.191Z,29.37
2019-05-20T03:48:21.109Z,30.10
2019-05-20T03:51:23.116Z,24.97
2019-05-20T03:54:25.041Z,25.07
2019-05-20T03:57:28.119Z,27.00
2019-05-20T04:00:45.218Z,22.20
2019-05-20T04:03:48.306Z,28.93
2019-05-20T04:06:50.427Z,21.70
2019-05-20T04:09:52.346Z,23.77
2019-05-20T04:12:54.392Z,22.20
2019-05-20T04:15:56.352Z,22.20
2019-05-20T04:18:58.389Z,23.37
2019-05-20T04:22:00.486Z,26.17
2019-05-20T04:25:04.515Z,23.10
2019-05-20T04:28:06.687Z,24.30
2019-05-20T04:31:08.664Z,29.50
2019-05-20T04:34:10.612Z,21.07
2019-05-20T04:37:12.615Z,22.53
2019-05-20T04:40:14.711Z,27.70
2019-05-20T04:43:16.721Z,42.23
2019-05-20T04:46:18.758Z,21.10
2019-05-20T04:49:20.701Z,23.93
2019-05-20T04:52:22.830Z,27.67
2019-05-20T04:55:24.868Z,25.13
2019-05-20T04:58:26.914Z,30.73
2019-05-20T05:01:29.445Z,33.47
2019-05-20T05:04:31.442Z,38.10
2019-05-20T05:07:33.342Z,33.00
2019-05-20T05:10:35.315Z,33.97
2019-05-20T05:13:37.269Z,29.77
2019-05-20T05:16:39.279Z,29.60
2019-05-20T05:19:41.341Z,28.13
2019-05-20T05:22:43.364Z,30.83
2019-05-20T05:25:45.264Z,26.80
2019-05-20T05:28:47.478Z,26.43
2019-05-20T05:31:49.390Z,31.83
2019-05-20T05:34:51.392Z,25.27
2019-05-20T05:37:54.434Z,28.37
2019-05-20T05:40:56.526Z,23.33
2019-05-20T05:43:58.541Z,26.90
2019-05-20T05:47:00.623Z,29.17
2019-05-20T05:50:06.999Z,26.20
2019-05-20T05:53:08.969Z,24.70
2019-05-20T05:56:10.970Z,24.00
2019-05-20T05:59:12.934Z,31.27
2019-05-20T06:02:15.003Z,26.97
2019-05-20T06:05:16.902Z,27.33
2019-05-20T06:08:19.074Z,23.17
2019-05-20T06:11:21.186Z,28.37
2019-05-20T06:14:23.190Z,21.90
2019-05-20T06:17:25.189Z,23.07
2019-05-20T06:20:27.162Z,23.10
2019-05-20T06:23:29.134Z,33.07
2019-05-20T06:26:31.063Z,28.37
2019-05-20T06:29:33.269Z,27.53
2019-05-20T06:32:35.238Z,29.27
2019-05-20T06:35:37.347Z,26.53
2019-05-20T06:38:41.344Z,24.87
2019-05-20T06:41:43.370Z,35.43
2019-05-20T06:44:52.869Z,31.97
2019-05-20T06:47:49.308Z,28.13
2019-05-20T06:50:51.259Z,27.90
2019-05-20T06:53:53.229Z,30.43
2019-05-20T06:56:55.292Z,30.67
2019-05-20T06:59:57.377Z,31.10
2019-05-20T07:03:00.312Z,28.33
2019-05-20T07:06:02.270Z,27.90
2019-05-20T07:09:05.510Z,43.07
2019-05-20T07:12:07.439Z,29.03
2019-05-20T07:15:09.500Z,27.10
2019-05-20T07:18:11.726Z,27.20
2019-05-20T07:21:13.800Z,30.50
2019-05-20T07:24:15.739Z,30.63
2019-05-20T07:27:18.086Z,28.07
2019-05-20T07:30:20.299Z,63.43
2019-05-20T07:33:22.231Z,28.73
2019-05-20T07:36:24.186Z,27.10
2019-05-20T07:39:26.153Z,24.97
2019-05-20T07:42:28.152Z,30.33
2019-05-20T07:45:32.567Z,25.47
2019-05-20T07:48:34.720Z,28.47
2019-05-20T07:51:37.800Z,27.90
2019-05-20T07:54:40.358Z,26.50
2019-05-20T07:57:44.025Z,25.90
2019-05-20T08:00:45.961Z,25.37
2019-05-20T08:03:47.963Z,29.13
2019-05-20T08:06:49.940Z,26.60
2019-05-20T08:09:51.826Z,25.80
2019-05-20T08:12:53.792Z,32.10
2019-05-20T08:15:55.746Z,26.47
2019-05-20T08:18:57.728Z,27.07
2019-05-20T08:21:59.766Z,28.20
2019-05-20T08:25:03.433Z,27.73
2019-05-20T08:28:05.388Z,26.33
2019-05-20T08:31:07.342Z,27.17
2019-05-20T08:34:09.384Z,25.27
2019-05-20T08:37:12.398Z,26.47
2019-05-20T08:40:14.539Z,30.30
2019-05-20T08:43:16.542Z,29.47
2019-05-20T08:46:18.625Z,28.67
2019-05-20T08:49:20.617Z,31.20
2019-05-20T08:52:22.628Z,34.57
2019-05-20T08:55:24.574Z,27.63
2019-05-20T08:58:26.550Z,27.77
2019-05-20T09:01:28.474Z,27.03
2019-05-20T09:04:30.403Z,27.07
2019-05-20T09:07:32.392Z,33.83
2019-05-20T09:10:34.449Z,30.33
2019-05-20T09:13:36.471Z,30.87
2019-05-20T09:16:38.283Z,31.37
2019-05-20T09:19:40.256Z,31.33
2019-05-20T09:22:42.250Z,29.83
2019-05-20T09:25:44.239Z,33.13
2019-05-20T09:28:46.299Z,32.60
2019-05-20T09:31:48.522Z,31.50
2019-05-20T09:34:50.543Z,37.37
2019-05-20T09:37:52.653Z,36.13
2019-05-20T09:40:54.629Z,35.00
2019-05-20T09:43:56.620Z,32.90
2019-05-20T09:46:58.559Z,35.77
2019-05-20T09:50:00.519Z,31.40
2019-05-20T09:53:06.496Z,36.33
2019-05-20T09:56:06.423Z,34.67
2019-05-20T09:59:08.400Z,38.00
2019-05-20T10:02:10.348Z,34.23
2019-05-20T10:05:12.260Z,41.00
2019-05-20T10:08:14.232Z,41.10
2019-05-20T10:11:16.302Z,43.03
2019-05-20T10:14:18.268Z,48.73
2019-05-20T10:17:20.330Z,47.67
2019-05-20T10:20:22.372Z,48.83
2019-05-20T10:23:24.330Z,48.87
2019-05-20T10:26:26.314Z,45.93
2019-05-20T10:29:28.393Z,49.53
2019-05-20T10:32:30.339Z,47.17
2019-05-20T10:35:32.314Z,44.67
2019-05-20T10:38:34.295Z,40.50
2019-05-20T10:41:36.262Z,42.37
2019-05-20T10:44:41.723Z,39.07
2019-05-20T10:47:42.155Z,32.40
2019-05-20T10:50:44.237Z,40.90
2019-05-20T10:53:46.261Z,32.87
2019-05-20T10:56:48.392Z,36.00
2019-05-20T10:59:50.360Z,37.53
2019-05-20T11:02:53.312Z,25.80
2019-05-20T11:05:55.276Z,27.40
2019-05-20T11:09:11.710Z,26.33
2019-05-20T11:12:01.070Z,27.53
2019-05-20T11:15:06.077Z,12.83
2019-05-20T11:18:08.076Z,10.07
2019-05-20T11:21:10.036Z,9.47
2019-05-20T11:24:12.015Z,5.43
2019-05-20T11:27:13.948Z,11.60
2019-05-20T11:30:16.001Z,10.43
2019-05-20T11:33:17.913Z,12.43
2019-05-20T11:36:21.016Z,20.53
2019-05-20T11:39:33.468Z,8.30
2019-05-20T11:42:26.871Z,9.43
2019-05-20T11:45:28.858Z,6.77
2019-05-20T11:48:30.811Z,4.20
2019-05-20T11:51:32.763Z,2.47
2019-05-20T11:54:34.778Z,2.47
2019-05-20T11:57:36.713Z,3.20
2019-05-20T12:00:38.782Z,2.30
2019-05-20T12:03:40.726Z,3.23
2019-05-20T12:06:42.756Z,3.40
2019-05-20T12:09:49.516Z,2.73
2019-05-20T12:12:48.542Z,1.47
2019-05-20T12:15:50.586Z,1.30
2019-05-20T12:18:52.598Z,1.50
2019-05-20T12:21:54.569Z,1.20
2019-05-20T12:24:56.602Z,1.40
2019-05-20T12:27:58.505Z,5.50
2019-05-20T12:31:00.438Z,1.47
2019-05-20T12:34:02.575Z,2.43
2019-05-20T12:37:04.470Z,1.40
2019-05-20T12:40:08.097Z,1.63
2019-05-20T12:43:10.648Z,1.33
2019-05-20T12:46:12.713Z,3.40
2019-05-20T12:49:14.920Z,1.90
2019-05-20T12:52:16.936Z,1.23
2019-05-20T12:55:18.988Z,2.73
2019-05-20T12:58:21.029Z,2.37
2019-05-20T13:01:22.949Z,2.00
2019-05-20T13:04:25.005Z,2.07
2019-05-20T13:07:27.022Z,2.10
2019-05-20T13:10:32.048Z,1.77
2019-05-20T13:13:34.725Z,3.10
2019-05-20T13:16:36.673Z,2.10
2019-05-20T13:19:38.642Z,5.10
2019-05-20T13:22:40.634Z,2.30
2019-05-20T13:25:42.596Z,3.50
2019-05-20T13:28:44.622Z,1.93
2019-05-20T13:31:46.505Z,2.63
2019-05-20T13:34:48.559Z,2.17
2019-05-20T13:37:50.548Z,2.30
2019-05-20T13:40:52.477Z,2.60
2019-05-20T13:43:54.686Z,7.13
2019-05-20T13:46:56.636Z,1.77
2019-05-20T13:49:59.971Z,2.97
2019-05-20T13:53:02.120Z,1.70
2019-05-20T13:56:04.165Z,2.10
2019-05-20T13:59:06.267Z,2.17
2019-05-20T14:02:08.314Z,2.00
2019-05-20T14:05:10.471Z,2.43
2019-05-20T14:08:12.643Z,3.63
2019-05-20T14:11:14.637Z,2.37
2019-05-20T14:14:16.601Z,3.73
2019-05-20T14:17:18.637Z,1.90
2019-05-20T14:20:20.637Z,2.23
2019-05-20T14:23:22.595Z,4.77
2019-05-20T14:26:24.601Z,2.30
2019-05-20T14:29:26.910Z,3.20
2019-05-20T14:32:28.926Z,2.60
2019-05-20T14:35:31.024Z,2.63
2019-05-20T14:38:33.035Z,2.93
2019-05-20T14:41:34.962Z,2.80
2019-05-20T14:44:37.278Z,3.00
2019-05-20T14:47:39.235Z,3.27
2019-05-20T14:50:42.332Z,3.90
2019-05-20T14:53:44.316Z,2.43
2019-05-20T14:56:47.957Z,3.13
2019-05-20T14:59:50.035Z,3.13
2019-05-20T15:02:52.114Z,2.87
2019-05-20T15:05:54.191Z,3.87
2019-05-20T15:08:56.302Z,2.70
2019-05-20T15:11:58.317Z,2.70
2019-05-20T15:15:00.357Z,3.07
2019-05-20T15:18:02.299Z,5.03
2019-05-20T15:21:05.303Z,3.37
2019-05-20T15:24:08.544Z,3.00
2019-05-20T15:27:10.643Z,2.60
2019-05-20T15:30:12.841Z,3.17
2019-05-20T15:33:14.837Z,2.23
2019-05-20T15:36:16.944Z,2.53
2019-05-20T15:39:18.896Z,2.77
2019-05-20T15:42:20.854Z,3.07
2019-05-20T15:45:22.898Z,3.27
2019-05-20T15:48:24.958Z,2.90
2019-05-20T15:51:27.021Z,2.60
2019-05-20T15:54:29.137Z,4.00
2019-05-20T15:57:31.104Z,2.93
2019-05-20T16:00:34.293Z,3.00
2019-05-20T16:03:39.706Z,3.80
2019-05-20T16:06:41.702Z,6.10
2019-05-20T16:09:44.147Z,3.73
2019-05-20T16:12:46.046Z,2.70
2019-05-20T16:15:48.101Z,2.80
2019-05-20T16:18:51.581Z,2.73
2019-05-20T16:21:54.821Z,2.83
2019-05-20T16:24:56.742Z,4.07
2019-05-20T16:27:58.696Z,5.30
2019-05-20T16:31:00.656Z,3.27
2019-05-20T16:34:02.684Z,2.70
2019-05-20T16:37:04.752Z,4.33
2019-05-20T16:40:07.923Z,4.87
2019-05-20T16:43:10.026Z,4.13
2019-05-20T16:46:12.173Z,3.57
2019-05-20T16:49:14.205Z,5.07
2019-05-20T16:52:17.598Z,2.90
2019-05-20T16:55:19.552Z,3.17
2019-05-20T16:58:21.692Z,5.07
2019-05-20T17:01:23.771Z,6.70
2019-05-20T17:04:26.104Z,5.23
2019-05-20T17:07:28.486Z,6.20
2019-05-20T17:10:30.659Z,3.90
2019-05-20T17:13:33.513Z,4.43
2019-05-20T17:16:35.494Z,4.37
2019-05-20T17:19:37.413Z,4.37
2019-05-20T17:22:41.262Z,4.13
2019-05-20T17:25:43.293Z,3.97
2019-05-20T17:28:45.432Z,6.30
2019-05-20T17:31:49.268Z,6.60
2019-05-20T17:34:51.625Z,5.30
2019-05-20T17:37:55.516Z,5.97
2019-05-20T17:40:57.573Z,5.60
2019-05-20T17:43:59.514Z,5.37
2019-05-20T17:47:01.501Z,5.63
2019-05-20T17:50:05.821Z,8.37
2019-05-20T17:53:07.911Z,6.50
2019-05-20T17:56:13.090Z,5.67
2019-05-20T17:59:15.439Z,5.90
2019-05-20T18:02:17.449Z,8.47
2019-05-20T18:05:19.520Z,8.63
2019-05-20T18:08:26.033Z,6.40
2019-05-20T18:11:28.162Z,7.47
2019-05-20T18:14:30.654Z,6.83
2019-05-20T18:17:33.778Z,8.63
2019-05-20T18:20:35.708Z,7.83
2019-05-20T18:23:38.009Z,7.57
2019-05-20T18:26:39.972Z,8.77
2019-05-20T18:29:41.956Z,8.13
2019-05-20T18:32:44.369Z,9.03
2019-05-20T18:35:46.518Z,8.50
2019-05-20T18:38:49.664Z,8.57
2019-05-20T18:41:53.979Z,7.27
2019-05-20T18:44:57.106Z,8.83
2019-05-20T18:47:59.195Z,7.27
2019-05-20T18:51:01.464Z,6.70
2019-05-20T18:54:03.834Z,8.30
2019-05-20T18:57:07.613Z,9.37
2019-05-20T19:00:10.873Z,9.50
2019-05-20T19:03:13.901Z,8.07
2019-05-20T19:06:17.701Z,7.80
2019-05-20T19:09:19.745Z,9.73
2019-05-20T19:12:21.834Z,10.57
2019-05-20T19:15:23.854Z,15.40
2019-05-20T19:18:29.751Z,12.57
2019-05-20T19:21:31.766Z,8.77
2019-05-20T19:24:36.404Z,10.30
2019-05-20T19:27:38.474Z,8.40
2019-05-20T19:30:40.402Z,10.97
2019-05-20T19:33:42.427Z,11.70
2019-05-20T19:36:45.532Z,10.30
2019-05-20T19:39:49.465Z,10.73
2019-05-20T19:42:52.224Z,12.67
2019-05-20T19:45:55.229Z,15.33
2019-05-20T19:48:57.271Z,10.33
2019-05-20T19:51:59.300Z,11.80
2019-05-20T19:55:01.448Z,10.83
2019-05-20T19:58:06.441Z,11.20
2019-05-20T20:01:08.416Z,11.70
2019-05-20T20:04:10.406Z,12.47
2019-05-20T20:07:12.978Z,118.50
2019-05-20T20:10:16.680Z,34.40
2019-05-20T20:13:21.280Z,9.40
2019-05-20T20:16:24.476Z,10.97
2019-05-20T20:19:31.241Z,9.63
2019-05-20T20:22:33.239Z,10.07
2019-05-20T20:25:36.607Z,11.27
2019-05-20T20:28:40.036Z,9.20
2019-05-20T20:31:43.399Z,8.93
2019-05-20T20:34:47.013Z,13.37
2019-05-20T20:37:48.996Z,11.00
2019-05-20T20:40:52.731Z,10.83
2019-05-20T20:43:54.778Z,13.87
2019-05-20T20:46:56.826Z,12.87
2019-05-20T20:49:58.883Z,14.60
2019-05-20T20:53:00.794Z,12.90
2019-05-20T20:56:04.602Z,13.57
2019-05-20T20:59:06.648Z,13.27
2019-05-20T21:02:08.684Z,12.47
2019-05-20T21:05:11.564Z,13.33
2019-05-20T21:08:13.599Z,12.80
2019-05-20T21:11:16.186Z,15.57
2019-05-20T21:14:18.132Z,15.10
2019-05-20T21:17:20.084Z,15.33
2019-05-20T21:20:22.093Z,12.37
2019-05-20T21:23:25.687Z,15.50
2019-05-20T21:26:27.762Z,15.30
2019-05-20T21:29:32.428Z,13.03
2019-05-20T21:32:33.583Z,13.67
2019-05-20T21:35:35.550Z,13.87
2019-05-20T21:38:37.510Z,15.43
2019-05-20T21:41:39.592Z,17.00
2019-05-20T21:44:41.499Z,15.63
2019-05-20T21:47:44.785Z,17.47
2019-05-20T21:50:47.142Z,22.87
2019-05-20T21:53:49.176Z,18.07
2019-05-20T21:56:51.049Z,23.50
2019-05-20T21:59:54.038Z,16.80
2019-05-20T22:02:57.176Z,13.97
2019-05-20T22:05:59.220Z,15.13
2019-05-20T22:09:04.607Z,15.10
2019-05-20T22:12:06.624Z,17.30
2019-05-20T22:15:08.628Z,14.53
2019-05-20T22:18:10.661Z,16.67
2019-05-20T22:21:14.402Z,13.27
2019-05-20T22:24:16.427Z,15.83
2019-05-20T22:27:18.383Z,14.40
2019-05-20T22:30:20.425Z,13.37
2019-05-20T22:33:22.378Z,12.93
2019-05-20T22:36:24.386Z,13.40
2019-05-20T22:39:26.268Z,13.13
2019-05-20T22:42:28.319Z,16.07
2019-05-20T22:45:31.956Z,18.70
2019-05-20T22:48:33.905Z,15.77
2019-05-20T22:51:35.884Z,14.13
2019-05-20T22:54:37.889Z,13.77
2019-05-20T22:57:39.778Z,12.93
2019-05-20T23:00:41.782Z,13.10
2019-05-20T23:03:55.662Z,16.03
2019-05-20T23:06:47.674Z,14.00
2019-05-20T23:09:49.667Z,13.63
2019-05-20T23:12:51.616Z,14.63
2019-05-20T23:15:55.689Z,13.10
2019-05-20T23:18:57.386Z,14.57
2019-05-20T23:21:59.340Z,13.97
2019-05-20T23:25:01.278Z,14.77
2019-05-20T23:28:04.388Z,13.83
2019-05-20T23:31:06.339Z,14.37
2019-05-20T23:34:12.879Z,15.33
2019-05-20T23:37:12.117Z,15.27
2019-05-20T23:40:13.985Z,13.97
2019-05-20T23:43:16.123Z,15.93
2019-05-20T23:46:18.388Z,14.80
2019-05-20T23:49:20.394Z,15.03
2019-05-20T23:52:22.301Z,14.10
2019-05-20T23:55:24.854Z,13.30
2019-05-20T23:58:26.810Z,14.17
